createdAt,value
2018-11-23T00:01:06.777Z,24.90
2018-11-23T00:03:35.041Z,25.47
2018-11-23T00:06:03.248Z,24.83
2018-11-23T00:08:31.493Z,26.03
2018-11-23T00:10:59.712Z,26.23
2018-11-23T00:13:27.963Z,25.60
2018-11-23T00:15:56.225Z,26.60
2018-11-23T00:18:24.449Z,26.37
2018-11-23T00:20:52.676Z,27.20
2018-11-23T00:23:20.985Z,26.63
2018-11-23T00:25:49.232Z,24.87
2018-11-23T00:28:17.494Z,26.63
2018-11-23T00:30:45.740Z,26.80
2018-11-23T00:33:13.981Z,26.53
2018-11-23T00:35:42.181Z,26.53
2018-11-23T00:38:10.418Z,27.20
2018-11-23T00:40:38.631Z,26.13
2018-11-23T00:43:06.873Z,27.30
2018-11-23T00:45:35.741Z,27.47
2018-11-23T00:48:03.376Z,26.90
2018-11-23T00:50:31.613Z,26.83
2018-11-23T00:53:00.499Z,26.50
2018-11-23T00:55:29.326Z,27.93
2018-11-23T00:57:57.560Z,28.23
2018-11-23T01:00:30.075Z,28.33
2018-11-23T01:02:59.071Z,30.17
2018-11-23T01:05:27.303Z,29.10
2018-11-23T01:07:55.549Z,29.67
2018-11-23T01:10:24.809Z,30.33
2018-11-23T01:12:53.817Z,30.77
2018-11-23T01:15:22.031Z,30.57
2018-11-23T01:17:50.793Z,29.57
2018-11-23T01:20:21.193Z,31.70
2018-11-23T01:22:49.744Z,30.53
2018-11-23T01:25:19.144Z,31.47
2018-11-23T01:27:48.355Z,33.90
2018-11-23T01:30:19.813Z,31.60
2018-11-23T01:32:48.008Z,33.70
2018-11-23T01:35:16.293Z,34.37
2018-11-23T01:37:44.514Z,34.67
2018-11-23T01:40:15.277Z,33.87
2018-11-23T01:42:43.584Z,35.67
2018-11-23T01:45:12.234Z,35.37
2018-11-23T01:47:40.533Z,35.87
2018-11-23T01:50:11.754Z,35.30
2018-11-23T01:52:39.955Z,36.10
2018-11-23T01:55:09.381Z,36.23
2018-11-23T01:57:38.191Z,38.13
2018-11-23T02:00:07.557Z,36.80
2018-11-23T02:02:35.752Z,36.73
2018-11-23T02:05:03.978Z,37.23
2018-11-23T02:07:32.219Z,39.80
2018-11-23T02:10:00.439Z,39.20
2018-11-23T02:12:28.655Z,40.70
2018-11-23T02:14:56.920Z,38.83
2018-11-23T02:17:25.132Z,38.90
2018-11-23T02:19:55.383Z,39.97
2018-11-23T02:22:23.624Z,41.10
2018-11-23T02:24:52.176Z,40.70
2018-11-23T02:27:20.529Z,40.17
2018-11-23T02:29:48.763Z,42.50
2018-11-23T02:32:16.984Z,40.67
2018-11-23T02:34:45.184Z,41.70
2018-11-23T02:37:13.422Z,43.13
2018-11-23T02:39:41.656Z,41.57
2018-11-23T02:42:09.873Z,41.43
2018-11-23T02:44:38.080Z,43.70
2018-11-23T02:47:06.369Z,42.90
2018-11-23T02:49:34.592Z,42.07
2018-11-23T02:52:02.860Z,42.60
2018-11-23T02:54:31.068Z,43.17
2018-11-23T02:56:59.316Z,43.23
2018-11-23T02:59:27.503Z,44.40
2018-11-23T03:01:55.760Z,42.33
2018-11-23T03:04:23.981Z,46.07
2018-11-23T03:06:52.205Z,44.53
2018-11-23T03:09:20.391Z,45.87
2018-11-23T03:11:48.609Z,42.57
2018-11-23T03:14:16.843Z,46.13
2018-11-23T03:16:45.076Z,45.10
2018-11-23T03:19:13.272Z,43.10
2018-11-23T03:21:41.496Z,46.07
2018-11-23T03:24:09.701Z,44.13
2018-11-23T03:26:37.974Z,43.80
2018-11-23T03:29:06.236Z,44.83
2018-11-23T03:31:34.444Z,41.87
2018-11-23T03:34:02.641Z,45.10
2018-11-23T03:36:30.870Z,43.67
2018-11-23T03:38:59.081Z,43.57
2018-11-23T03:41:27.370Z,45.60
2018-11-23T03:43:55.602Z,43.40
2018-11-23T03:46:23.822Z,41.97
2018-11-23T03:48:52.021Z,41.37
2018-11-23T03:51:20.289Z,44.97
2018-11-23T03:53:48.543Z,43.73
2018-11-23T03:56:16.748Z,42.87
2018-11-23T03:58:44.990Z,43.97
2018-11-23T04:01:13.229Z,42.57
2018-11-23T04:03:41.475Z,42.93
2018-11-23T04:06:09.689Z,42.70
2018-11-23T04:08:37.958Z,44.23
2018-11-23T04:11:06.186Z,42.10
2018-11-23T04:13:34.413Z,43.70
2018-11-23T04:16:02.666Z,43.77
2018-11-23T04:18:30.909Z,45.20
2018-11-23T04:21:01.023Z,43.50
2018-11-23T04:23:30.105Z,44.77
2018-11-23T04:25:58.337Z,45.17
2018-11-23T04:28:26.557Z,44.90
2018-11-23T04:30:55.604Z,44.43
2018-11-23T04:33:24.133Z,45.73
2018-11-23T04:35:52.327Z,43.30
2018-11-23T04:38:20.594Z,44.00
2018-11-23T04:40:48.810Z,44.27
2018-11-23T04:43:17.077Z,45.13
2018-11-23T04:45:45.316Z,44.53
2018-11-23T04:48:13.544Z,44.97
2018-11-23T04:50:41.749Z,44.63
2018-11-23T04:53:10.009Z,45.50
2018-11-23T04:55:38.217Z,43.77
2018-11-23T04:58:06.431Z,43.30
2018-11-23T05:00:34.661Z,44.63
2018-11-23T05:03:02.890Z,46.53
2018-11-23T05:05:31.430Z,44.27
2018-11-23T05:07:59.654Z,46.17
2018-11-23T05:10:27.891Z,44.33
2018-11-23T05:12:56.107Z,45.20
2018-11-23T05:15:24.378Z,45.67
2018-11-23T05:17:52.584Z,44.10
2018-11-23T05:20:20.834Z,45.67
2018-11-23T05:22:49.057Z,43.87
2018-11-23T05:25:18.348Z,46.17
2018-11-23T05:27:46.565Z,44.60
2018-11-23T05:30:17.097Z,44.63
2018-11-23T05:32:45.303Z,45.97
2018-11-23T05:35:14.601Z,46.70
2018-11-23T05:37:43.997Z,46.23
2018-11-23T05:40:14.202Z,47.63
2018-11-23T05:42:42.441Z,46.70
2018-11-23T05:45:13.080Z,45.13
2018-11-23T05:47:41.303Z,47.03
2018-11-23T05:50:16.785Z,47.10
2018-11-23T05:52:45.984Z,45.73
2018-11-23T05:55:14.247Z,47.80
2018-11-23T05:57:43.084Z,45.33
2018-11-23T06:00:16.476Z,47.43
2018-11-23T06:02:44.698Z,45.37
2018-11-23T06:05:12.934Z,44.27
2018-11-23T06:07:41.179Z,46.67
2018-11-23T06:10:11.981Z,45.33
2018-11-23T06:12:40.315Z,45.27
2018-11-23T06:15:12.133Z,44.63
2018-11-23T06:17:40.540Z,45.37
2018-11-23T06:20:11.544Z,46.07
2018-11-23T06:22:39.817Z,46.33
2018-11-23T06:25:11.009Z,47.40
2018-11-23T06:27:39.342Z,45.23
2018-11-23T06:30:09.390Z,44.97
2018-11-23T06:32:49.342Z,47.17
2018-11-23T06:35:17.600Z,45.87
2018-11-23T06:37:46.602Z,45.17
2018-11-23T06:40:14.838Z,45.70
2018-11-23T06:42:43.117Z,44.00
2018-11-23T06:45:11.602Z,43.03
2018-11-23T06:47:39.983Z,42.77
2018-11-23T06:50:10.776Z,45.00
2018-11-23T06:52:39.421Z,41.87
2018-11-23T06:55:07.811Z,44.53
2018-11-23T06:57:36.077Z,44.97
2018-11-23T07:00:05.203Z,43.53
2018-11-23T07:02:33.458Z,44.40
2018-11-23T07:05:01.691Z,43.87
2018-11-23T07:07:29.927Z,44.07
2018-11-23T07:09:58.132Z,43.83
2018-11-23T07:12:26.352Z,41.97
2018-11-23T07:14:54.600Z,43.37
2018-11-23T07:17:23.283Z,42.37
2018-11-23T07:19:51.812Z,43.93
2018-11-23T07:22:20.120Z,42.43
2018-11-23T07:24:48.417Z,43.27
2018-11-23T07:27:16.718Z,42.27
2018-11-23T07:29:44.923Z,40.63
2018-11-23T07:32:13.130Z,42.23
2018-11-23T07:34:41.370Z,40.73
2018-11-23T07:37:09.598Z,43.53
2018-11-23T07:39:49.158Z,41.10
2018-11-23T07:42:23.518Z,40.73
2018-11-23T07:44:51.787Z,40.57
2018-11-23T07:47:20.434Z,42.27
2018-11-23T07:49:48.683Z,39.27
2018-11-23T07:52:17.272Z,40.00
2018-11-23T07:54:45.515Z,40.57
2018-11-23T07:57:13.756Z,40.37
2018-11-23T07:59:42.001Z,38.10
2018-11-23T08:02:11.192Z,40.03
2018-11-23T08:04:40.169Z,40.80
2018-11-23T08:07:09.544Z,40.43
2018-11-23T08:09:38.140Z,37.20
2018-11-23T08:12:06.659Z,37.47
2018-11-23T08:14:35.040Z,40.13
2018-11-23T08:17:03.419Z,39.30
2018-11-23T08:19:31.967Z,39.47
2018-11-23T08:22:00.254Z,37.13
2018-11-23T08:24:28.482Z,38.00
2018-11-23T08:26:56.776Z,38.63
2018-11-23T08:29:25.020Z,40.13
2018-11-23T08:31:53.300Z,37.57
2018-11-23T08:34:21.607Z,36.97
2018-11-23T08:36:49.857Z,40.03
2018-11-23T08:39:18.075Z,34.90
2018-11-23T08:41:46.304Z,36.93
2018-11-23T08:44:14.570Z,37.27
2018-11-23T08:46:42.801Z,35.77
2018-11-23T08:49:11.009Z,34.90
2018-11-23T08:51:39.268Z,36.80
2018-11-23T08:54:07.538Z,36.10
2018-11-23T08:56:35.819Z,35.23
2018-11-23T08:59:04.007Z,37.13
2018-11-23T09:01:32.297Z,35.40
2018-11-23T09:04:00.533Z,35.30
2018-11-23T09:06:28.766Z,34.97
2018-11-23T09:08:56.975Z,35.50
2018-11-23T09:11:25.214Z,35.40
2018-11-23T09:13:53.448Z,34.53
2018-11-23T09:16:21.681Z,34.43
2018-11-23T09:18:49.908Z,34.30
2018-11-23T09:21:18.146Z,35.27
2018-11-23T09:23:46.376Z,33.67
2018-11-23T09:26:14.584Z,31.77
2018-11-23T09:28:42.798Z,34.07
2018-11-23T09:31:11.061Z,33.57
2018-11-23T09:33:39.337Z,33.53
2018-11-23T09:36:07.558Z,33.47
2018-11-23T09:38:35.805Z,33.67
2018-11-23T09:41:04.026Z,33.70
2018-11-23T09:43:32.274Z,31.27
2018-11-23T09:46:00.514Z,32.00
2018-11-23T09:48:28.741Z,31.93
2018-11-23T09:50:56.964Z,31.73
2018-11-23T09:53:25.189Z,32.77
2018-11-23T09:55:53.398Z,32.30
2018-11-23T09:58:21.666Z,32.90
2018-11-23T10:00:49.913Z,32.53
2018-11-23T10:03:18.169Z,33.20
2018-11-23T10:05:46.426Z,31.70
2018-11-23T10:08:14.689Z,31.93
2018-11-23T10:10:42.954Z,33.00
2018-11-23T10:13:11.163Z,33.50
2018-11-23T10:15:39.389Z,30.83
2018-11-23T10:18:07.622Z,31.50
2018-11-23T10:20:36.163Z,31.30
2018-11-23T10:23:04.410Z,31.77
2018-11-23T10:25:33.861Z,31.17
2018-11-23T10:28:02.128Z,31.77
2018-11-23T10:30:31.727Z,32.40
2018-11-23T10:33:01.308Z,32.57
2018-11-23T10:35:29.982Z,32.60
2018-11-23T10:37:59.511Z,32.00
2018-11-23T10:40:29.377Z,32.73
2018-11-23T10:42:57.593Z,30.87
2018-11-23T10:45:27.168Z,32.80
2018-11-23T10:47:56.024Z,31.83
2018-11-23T10:50:25.834Z,29.90
2018-11-23T10:52:54.128Z,32.73
2018-11-23T10:55:23.834Z,32.90
2018-11-23T10:57:52.108Z,30.70
2018-11-23T11:00:25.673Z,30.37
2018-11-23T11:03:00.016Z,32.77
2018-11-23T11:05:45.547Z,33.90
2018-11-23T11:08:13.746Z,31.73
2018-11-23T11:10:41.968Z,33.90
2018-11-23T11:13:10.219Z,32.97
2018-11-23T11:15:38.468Z,31.27
2018-11-23T11:18:07.549Z,31.43
2018-11-23T11:20:35.790Z,32.60
2018-11-23T11:23:04.081Z,32.10
2018-11-23T11:25:32.317Z,34.63
2018-11-23T11:28:00.569Z,33.30
2018-11-23T11:30:28.811Z,32.47
2018-11-23T11:32:57.041Z,34.10
2018-11-23T11:35:25.298Z,31.97
2018-11-23T11:37:53.533Z,34.53
2018-11-23T11:40:21.753Z,34.83
2018-11-23T11:42:49.980Z,32.80
2018-11-23T11:45:19.008Z,33.53
2018-11-23T11:47:47.797Z,34.77
2018-11-23T11:50:16.253Z,36.03
2018-11-23T11:52:45.868Z,34.83
2018-11-23T11:55:18.339Z,34.60
2018-11-23T11:57:47.326Z,35.27
2018-11-23T12:00:18.979Z,34.23
2018-11-23T12:02:47.781Z,34.27
2018-11-23T12:05:16.018Z,35.07
2018-11-23T12:07:44.337Z,35.57
2018-11-23T12:10:15.765Z,36.77
2018-11-23T12:12:44.003Z,35.30
2018-11-23T12:15:12.990Z,35.70
2018-11-23T12:17:41.656Z,37.10
2018-11-23T12:20:12.453Z,35.87
2018-11-23T12:22:40.812Z,36.93
2018-11-23T12:25:09.186Z,37.00
2018-11-23T12:27:37.437Z,37.90
2018-11-23T12:30:08.361Z,37.30
2018-11-23T12:32:36.660Z,36.23
2018-11-23T12:35:05.980Z,37.60
2018-11-23T12:37:34.185Z,37.50
2018-11-23T12:40:02.409Z,38.43
2018-11-23T12:42:30.643Z,37.63
2018-11-23T12:44:58.890Z,39.93
2018-11-23T12:47:27.137Z,38.67
2018-11-23T12:49:55.375Z,38.10
2018-11-23T12:52:23.658Z,37.73
2018-11-23T12:54:51.934Z,38.40
2018-11-23T12:57:20.191Z,38.17
2018-11-23T12:59:48.420Z,39.67
2018-11-23T13:02:16.688Z,37.47
2018-11-23T13:04:44.953Z,38.27
2018-11-23T13:07:13.180Z,38.27
2018-11-23T13:09:42.449Z,37.80
2018-11-23T13:12:10.681Z,37.97
2018-11-23T13:14:38.937Z,38.33
2018-11-23T13:17:07.325Z,38.87
2018-11-23T13:19:35.583Z,38.13
2018-11-23T13:22:03.836Z,37.80
2018-11-23T13:24:32.086Z,37.50
2018-11-23T13:27:00.377Z,38.13
2018-11-23T13:29:28.608Z,37.53
2018-11-23T13:31:56.825Z,37.87
2018-11-23T13:34:25.061Z,38.07
2018-11-23T13:36:53.336Z,38.03
2018-11-23T13:39:21.563Z,36.67
2018-11-23T13:41:49.817Z,38.00
2018-11-23T13:44:18.173Z,37.70
2018-11-23T13:46:46.436Z,37.47
2018-11-23T13:49:14.674Z,38.83
2018-11-23T13:51:42.952Z,37.47
2018-11-23T13:54:11.175Z,36.10
2018-11-23T13:56:39.399Z,38.13
2018-11-23T13:59:07.613Z,35.97
2018-11-23T14:01:35.885Z,37.60
2018-11-23T14:04:04.096Z,37.43
2018-11-23T14:06:32.319Z,35.97
2018-11-23T14:09:00.542Z,37.63
2018-11-23T14:11:28.795Z,39.87
2018-11-23T14:13:57.009Z,39.27
2018-11-23T14:16:25.261Z,37.17
2018-11-23T14:18:53.467Z,38.10
2018-11-23T14:21:21.717Z,38.30
2018-11-23T14:23:49.954Z,36.73
2018-11-23T14:26:18.243Z,39.27
2018-11-23T14:28:46.443Z,39.17
2018-11-23T14:31:14.648Z,38.40
2018-11-23T14:33:42.887Z,39.03
2018-11-23T14:36:11.098Z,38.27
2018-11-23T14:38:39.322Z,39.07
2018-11-23T14:41:07.541Z,39.70
2018-11-23T14:43:35.760Z,38.30
2018-11-23T14:46:03.974Z,38.17
2018-11-23T14:48:32.210Z,40.27
2018-11-23T14:51:00.405Z,38.40
2018-11-23T14:53:28.669Z,39.23
2018-11-23T14:55:56.889Z,37.63
2018-11-23T14:58:25.205Z,38.73
2018-11-23T15:00:53.424Z,39.17
2018-11-23T15:03:21.672Z,41.37
2018-11-23T15:05:49.894Z,37.83
2018-11-23T15:08:18.127Z,37.77
2018-11-23T15:10:46.398Z,37.83
2018-11-23T15:13:14.658Z,39.47
2018-11-23T15:15:42.877Z,38.30
2018-11-23T15:18:11.084Z,39.67
2018-11-23T15:20:40.857Z,38.50
2018-11-23T15:23:11.472Z,39.53
2018-11-23T15:25:39.776Z,37.33
2018-11-23T15:28:09.316Z,39.30
2018-11-23T15:30:45.161Z,36.83
2018-11-23T15:33:14.936Z,39.80
2018-11-23T15:35:43.823Z,38.50
2018-11-23T15:38:13.821Z,38.03
2018-11-23T15:40:42.152Z,37.77
2018-11-23T15:43:11.949Z,36.47
2018-11-23T15:45:40.185Z,37.80
2018-11-23T15:48:09.006Z,37.80
2018-11-23T15:50:38.825Z,40.37
2018-11-23T15:53:09.649Z,38.93
2018-11-23T15:55:38.619Z,39.27
2018-11-23T15:58:09.522Z,40.53
2018-11-23T16:00:38.946Z,40.67
2018-11-23T16:03:10.208Z,40.40
2018-11-23T16:05:38.729Z,40.43
2018-11-23T16:08:08.471Z,39.13
2018-11-23T16:10:37.581Z,39.57
2018-11-23T16:13:11.344Z,39.43
2018-11-23T16:15:35.737Z,40.03
2018-11-23T16:18:04.359Z,39.67
2018-11-23T16:20:35.026Z,38.20
2018-11-23T16:23:04.613Z,39.73
2018-11-23T16:25:32.954Z,40.27
2018-11-23T16:28:02.492Z,41.37
2018-11-23T16:30:34.003Z,42.47
2018-11-23T16:33:03.220Z,41.13
2018-11-23T16:35:32.801Z,40.20
2018-11-23T16:38:03.484Z,40.17
2018-11-23T16:40:32.967Z,41.50
2018-11-23T16:43:01.717Z,42.47
2018-11-23T16:45:31.317Z,40.87
2018-11-23T16:48:00.714Z,41.37
2018-11-23T16:50:29.353Z,46.20
2018-11-23T16:52:57.943Z,42.27
2018-11-23T16:55:26.420Z,42.73
2018-11-23T16:57:59.033Z,45.57
2018-11-23T17:00:28.488Z,43.83
2018-11-23T17:02:57.835Z,43.57
2018-11-23T17:05:27.701Z,42.07
2018-11-23T17:07:55.961Z,40.63
2018-11-23T17:10:24.461Z,41.60
2018-11-23T17:12:52.796Z,42.60
2018-11-23T17:15:22.349Z,42.53
2018-11-23T17:17:50.637Z,41.23
2018-11-23T17:20:23.545Z,42.07
2018-11-23T17:22:52.813Z,41.80
2018-11-23T17:25:21.985Z,42.73
2018-11-23T17:27:50.694Z,42.60
2018-11-23T17:30:21.401Z,43.30
2018-11-23T17:32:49.645Z,42.17
2018-11-23T17:35:17.932Z,40.93
2018-11-23T17:37:46.225Z,42.73
2018-11-23T17:40:15.930Z,41.90
2018-11-23T17:42:44.209Z,40.87
2018-11-23T17:45:13.968Z,42.47
2018-11-23T17:47:42.228Z,41.27
2018-11-23T17:50:15.100Z,41.17
2018-11-23T17:52:43.554Z,40.53
2018-11-23T17:55:12.555Z,40.83
2018-11-23T17:57:41.468Z,39.40
2018-11-23T18:00:15.366Z,36.70
2018-11-23T18:02:44.028Z,41.00
2018-11-23T18:05:13.439Z,40.10
2018-11-23T18:07:41.667Z,40.27
2018-11-23T18:10:13.485Z,39.97
2018-11-23T18:12:41.885Z,41.60
2018-11-23T18:15:13.197Z,42.20
2018-11-23T18:17:41.449Z,40.23
2018-11-23T18:20:12.716Z,43.50
2018-11-23T18:22:41.177Z,44.53
2018-11-23T18:25:12.241Z,43.30
2018-11-23T18:27:40.617Z,39.77
2018-11-23T18:30:10.201Z,44.53
2018-11-23T18:32:38.473Z,45.43
2018-11-23T18:35:07.838Z,40.67
2018-11-23T18:37:36.089Z,39.00
2018-11-23T18:40:07.069Z,38.07
2018-11-23T18:42:35.343Z,38.63
2018-11-23T18:45:03.614Z,38.60
2018-11-23T18:47:31.841Z,39.73
2018-11-23T18:50:00.053Z,38.63
2018-11-23T18:52:28.302Z,39.90
2018-11-23T18:54:56.525Z,41.47
2018-11-23T18:57:24.784Z,39.33
2018-11-23T18:59:53.093Z,38.80
2018-11-23T19:02:21.379Z,38.83
2018-11-23T19:04:49.613Z,41.10
2018-11-23T19:07:17.853Z,44.97
2018-11-23T19:09:46.104Z,46.33
2018-11-23T19:12:14.336Z,52.47
2018-11-23T19:14:42.571Z,52.40
2018-11-23T19:17:10.822Z,48.80
2018-11-23T19:19:39.065Z,52.90
2018-11-23T19:22:07.377Z,49.23
2018-11-23T19:24:35.600Z,46.13
2018-11-23T19:27:03.809Z,46.77
2018-11-23T19:29:32.037Z,46.80
2018-11-23T19:32:00.262Z,49.10
2018-11-23T19:34:28.493Z,48.07
2018-11-23T19:36:56.740Z,50.00
2018-11-23T19:39:25.013Z,52.27
2018-11-23T19:41:53.219Z,51.77
2018-11-23T19:44:21.466Z,48.07
2018-11-23T19:46:49.787Z,48.10
2018-11-23T19:49:18.045Z,46.47
2018-11-23T19:51:46.558Z,46.67
2018-11-23T19:54:14.793Z,48.80
2018-11-23T19:56:43.301Z,48.27
2018-11-23T19:59:11.526Z,49.50
2018-11-23T20:01:39.744Z,52.13
2018-11-23T20:04:07.998Z,51.70
2018-11-23T20:06:42.738Z,48.87
2018-11-23T20:09:08.585Z,47.97
2018-11-23T20:11:37.015Z,45.33
2018-11-23T20:14:05.767Z,52.00
2018-11-23T20:16:33.983Z,52.03
2018-11-23T20:19:02.228Z,52.57
2018-11-23T20:21:30.768Z,51.07
2018-11-23T20:23:58.982Z,48.47
2018-11-23T20:26:27.206Z,50.00
2018-11-23T20:28:55.425Z,48.10
2018-11-23T20:31:23.657Z,48.60
2018-11-23T20:33:51.951Z,48.97
2018-11-23T20:36:20.191Z,49.03
2018-11-23T20:38:48.419Z,48.70
2018-11-23T20:41:16.658Z,47.60
2018-11-23T20:43:44.926Z,46.60
2018-11-23T20:46:13.183Z,47.03
2018-11-23T20:48:41.400Z,48.33
2018-11-23T20:51:09.647Z,47.07
2018-11-23T20:53:37.875Z,50.57
2018-11-23T20:56:06.108Z,49.43
2018-11-23T20:58:34.383Z,50.03
2018-11-23T21:01:02.625Z,44.63
2018-11-23T21:03:30.878Z,46.00
2018-11-23T21:05:59.092Z,45.40
2018-11-23T21:08:27.332Z,44.70
2018-11-23T21:10:55.572Z,44.00
2018-11-23T21:13:23.847Z,41.77
2018-11-23T21:15:52.116Z,41.17
2018-11-23T21:18:20.372Z,42.30
2018-11-23T21:20:48.588Z,42.57
2018-11-23T21:23:17.144Z,45.40
2018-11-23T21:25:45.477Z,41.83
2018-11-23T21:28:13.696Z,41.53
2018-11-23T21:30:43.086Z,43.90
2018-11-23T21:33:11.305Z,42.23
2018-11-23T21:35:39.521Z,42.90
2018-11-23T21:38:07.776Z,43.27
2018-11-23T21:40:35.976Z,38.10
2018-11-23T21:43:04.223Z,37.37
2018-11-23T21:45:32.501Z,40.47
2018-11-23T21:48:00.731Z,41.67
2018-11-23T21:50:28.974Z,36.83
2018-11-23T21:52:57.181Z,38.77
2018-11-23T21:55:25.615Z,38.20
2018-11-23T21:57:55.659Z,37.70
2018-11-23T22:00:23.872Z,37.43
2018-11-23T22:02:52.098Z,35.77
2018-11-23T22:05:20.506Z,38.57
2018-11-23T22:07:48.712Z,42.17
2018-11-23T22:10:18.693Z,38.00
2018-11-23T22:12:46.913Z,33.03
2018-11-23T22:15:23.713Z,33.73
2018-11-23T22:17:53.447Z,37.03
2018-11-23T22:20:22.286Z,36.57
2018-11-23T22:22:50.488Z,35.07
2018-11-23T22:25:19.701Z,34.23
2018-11-23T22:27:47.906Z,34.63
2018-11-23T22:30:19.448Z,36.93
2018-11-23T22:32:47.679Z,35.30
2018-11-23T22:35:15.898Z,33.37
2018-11-23T22:37:44.130Z,35.20
2018-11-23T22:40:13.649Z,39.37
2018-11-23T22:42:43.884Z,40.17
2018-11-23T22:45:12.984Z,34.90
2018-11-23T22:47:41.236Z,35.07
2018-11-23T22:50:17.489Z,35.20
2018-11-23T22:52:45.713Z,33.30
2018-11-23T22:55:14.543Z,35.03
2018-11-23T22:57:42.769Z,44.67
2018-11-23T23:00:20.924Z,38.80
2018-11-23T23:02:49.393Z,35.57
2018-11-23T23:05:18.111Z,35.93
2018-11-23T23:07:46.333Z,36.90
2018-11-23T23:10:14.565Z,33.57
2018-11-23T23:12:42.781Z,36.47
2018-11-23T23:15:11.606Z,34.57
2018-11-23T23:17:40.322Z,34.00
2018-11-23T23:20:12.670Z,33.13
2018-11-23T23:22:40.936Z,32.10
2018-11-23T23:25:10.147Z,34.30
2018-11-23T23:27:38.432Z,35.10
2018-11-23T23:30:09.337Z,36.47
2018-11-23T23:32:37.667Z,38.43
2018-11-23T23:35:07.336Z,32.90
2018-11-23T23:37:35.595Z,34.93
2018-11-23T23:40:04.292Z,34.67
2018-11-23T23:42:32.527Z,36.83
2018-11-23T23:45:00.997Z,37.67
2018-11-23T23:47:29.217Z,33.50
2018-11-23T23:49:57.474Z,36.53
2018-11-23T23:52:25.687Z,35.93
2018-11-23T23:54:53.913Z,35.63
2018-11-23T23:57:22.109Z,35.33
2018-11-23T23:59:50.361Z,37.90
